Time;durP1;ratioP1;P1;durP2;ratioP2;P2;SDS_P1;SDS_P2;PMS_P1;PMS_P2;Temp;Humidity;BMP_temperature;BMP_pressure;BME280_temperature;BME280_humidity;BME280_pressure;Samples;Min_cycle;Max_cycle;Signal;HPM_P1;HPM_P2
2024/02/21 00:01:25;;;;;;;7.73;4.43;;;9.50;99.90;;;;;;5026503;28;20173;-69
2024/02/21 00:03:50;;;;;;;8.97;4.90;;;9.50;99.90;;;;;;5056856;28;20213;-72
2024/02/21 00:06:16;;;;;;;12.10;5.20;;;9.50;99.90;;;;;;5026834;28;20224;-69
2024/02/21 00:08:41;;;;;;;7.93;4.20;;;9.50;99.90;;;;;;5044398;28;20494;-73
2024/02/21 00:11:07;;;;;;;12.00;5.87;;;9.50;99.90;;;;;;5046036;28;20244;-71
2024/02/21 00:13:32;;;;;;;11.60;6.63;;;9.50;99.90;;;;;;5045133;28;20188;-69
2024/02/21 00:16:00;;;;;;;9.50;4.67;;;9.50;99.90;;;;;;5047369;28;20298;-72
2024/02/21 00:18:26;;;;;;;12.93;5.70;;;9.50;99.90;;;;;;5049708;28;20182;-73
2024/02/21 00:20:52;;;;;;;8.40;4.63;;;9.50;99.90;;;;;;5044220;28;20890;-68
2024/02/21 00:23:18;;;;;;;10.57;4.80;;;9.50;99.90;;;;;;5052618;28;20209;-68
2024/02/21 00:25:43;;;;;;;7.23;3.50;;;9.50;99.90;;;;;;5055362;28;20717;-70
2024/02/21 00:28:09;;;;;;;11.00;4.57;;;9.50;99.90;;;;;;5044172;28;20202;-69
2024/02/21 00:30:35;;;;;;;9.13;4.50;;;9.50;99.90;;;;;;5054611;28;20189;-68
2024/02/21 00:33:00;;;;;;;8.10;4.53;;;9.50;99.90;;;;;;5027464;28;20673;-69
2024/02/21 00:35:26;;;;;;;7.93;3.50;;;9.50;99.90;;;;;;5053634;28;20189;-69
2024/02/21 00:37:52;;;;;;;8.90;5.70;;;9.50;99.90;;;;;;5048854;28;20207;-69
2024/02/21 00:40:20;;;;;;;9.27;3.97;;;9.50;99.90;;;;;;5020862;28;20246;-68
2024/02/21 00:42:46;;;;;;;8.63;3.63;;;9.50;99.90;;;;;;5047109;28;20447;-68
2024/02/21 00:45:12;;;;;;;10.07;4.67;;;9.40;99.90;;;;;;5044182;28;20398;-69
2024/02/21 00:47:37;;;;;;;8.03;3.90;;;9.40;99.90;;;;;;5038933;28;20896;-69
2024/02/21 00:50:03;;;;;;;7.50;4.37;;;9.40;99.90;;;;;;5044577;28;20276;-69
2024/02/21 00:52:29;;;;;;;8.03;3.53;;;9.40;99.90;;;;;;5038780;28;20328;-70
2024/02/21 00:54:54;;;;;;;4.30;2.90;;;9.40;99.90;;;;;;5054967;28;20446;-69
2024/02/21 00:57:20;;;;;;;10.43;4.50;;;9.40;99.90;;;;;;5048100;28;20320;-68
2024/02/21 00:59:46;;;;;;;6.63;3.60;;;9.40;99.90;;;;;;5052429;28;20198;-68
2024/02/21 01:02:11;;;;;;;8.37;4.47;;;9.30;99.90;;;;;;5048654;28;20209;-69
2024/02/21 01:04:37;;;;;;;9.67;3.70;;;9.30;99.90;;;;;;5049562;28;20477;-68
2024/02/21 01:07:02;;;;;;;8.20;3.57;;;9.30;99.90;;;;;;5047347;28;20201;-69
2024/02/21 01:09:28;;;;;;;12.93;4.73;;;9.30;99.90;;;;;;5060558;28;20241;-69
2024/02/21 01:11:53;;;;;;;7.20;3.90;;;9.20;99.90;;;;;;5033446;28;20300;-68
2024/02/21 01:14:19;;;;;;;10.17;4.37;;;9.20;99.90;;;;;;5063818;28;20190;-69
2024/02/21 01:16:45;;;;;;;6.13;4.23;;;9.20;99.90;;;;;;5050832;28;20206;-68
2024/02/21 01:19:10;;;;;;;7.57;3.90;;;9.20;99.90;;;;;;5049011;28;20185;-68
2024/02/21 01:21:36;;;;;;;7.20;4.00;;;9.20;99.90;;;;;;5052506;28;20279;-70
2024/02/21 01:24:01;;;;;;;9.40;4.00;;;9.20;99.90;;;;;;5048074;28;20613;-69
2024/02/21 01:26:27;;;;;;;6.70;3.80;;;9.20;99.90;;;;;;5038582;28;20225;-70
2024/02/21 01:28:52;;;;;;;8.87;4.10;;;9.30;99.90;;;;;;5052554;28;20200;-69
2024/02/21 01:31:18;;;;;;;7.67;4.10;;;9.20;99.90;;;;;;5045701;28;20222;-68
2024/02/21 01:33:45;;;;;;;6.50;4.70;;;9.30;99.90;;;;;;5040372;28;20590;-70
2024/02/21 01:36:10;;;;;;;7.50;3.87;;;9.30;99.90;;;;;;5030922;28;20519;-69
2024/02/21 01:38:36;;;;;;;9.47;4.47;;;9.30;99.90;;;;;;5054885;28;20234;-68
2024/02/21 01:41:01;;;;;;;7.27;4.43;;;9.30;99.90;;;;;;5048169;28;20190;-68
2024/02/21 01:43:27;;;;;;;8.10;3.70;;;9.30;99.90;;;;;;5051759;28;20182;-68
2024/02/21 01:45:55;;;;;;;7.07;3.17;;;9.30;99.90;;;;;;5056741;28;20206;-70
2024/02/21 01:48:22;;;;;;;10.10;4.30;;;9.30;99.90;;;;;;5035551;28;20195;-69
2024/02/21 01:50:53;;;;;;;11.27;5.70;;;9.30;99.90;;;;;;5026311;28;20500;-69
2024/02/21 01:53:23;;;;;;;10.53;4.43;;;9.30;99.90;;;;;;5038811;28;20915;-67
2024/02/21 01:55:49;;;;;;;11.03;4.30;;;9.30;99.90;;;;;;5045412;28;20441;-67
2024/02/21 01:58:15;;;;;;;11.53;4.73;;;9.30;99.90;;;;;;5037762;28;20717;-69
2024/02/21 02:00:45;;;;;;;9.80;4.10;;;9.30;99.90;;;;;;5054374;28;20443;-70
2024/02/21 02:03:18;;;;;;;8.83;4.20;;;9.30;99.90;;;;;;5038169;28;20782;-69
2024/02/21 02:05:45;;;;;;;6.90;4.70;;;9.30;99.90;;;;;;5043364;28;20885;-69
2024/02/21 02:08:19;;;;;;;8.93;4.20;;;9.30;99.90;;;;;;5054737;28;20424;-68
2024/02/21 02:10:45;;;;;;;11.80;4.43;;;9.30;99.90;;;;;;5033188;28;20424;-67
2024/02/21 02:13:11;;;;;;;17.23;5.80;;;9.30;99.90;;;;;;5027248;28;20514;-68
2024/02/21 02:15:45;;;;;;;10.67;4.93;;;9.30;99.90;;;;;;5054469;28;20436;-68
2024/02/21 02:18:12;;;;;;;9.90;4.70;;;9.30;99.90;;;;;;5036702;28;20678;-67
2024/02/21 02:20:38;;;;;;;10.50;4.83;;;9.30;99.90;;;;;;5045349;28;20496;-67
2024/02/21 02:23:09;;;;;;;10.60;4.40;;;9.30;99.90;;;;;;5046399;28;20420;-69
2024/02/21 02:25:36;;;;;;;9.60;4.50;;;9.30;99.90;;;;;;5050448;28;20443;-68
2024/02/21 02:28:03;;;;;;;7.07;3.73;;;9.30;99.90;;;;;;5056745;28;20400;-69
2024/02/21 02:30:31;;;;;;;8.20;4.40;;;9.20;99.90;;;;;;5051497;28;20922;-69
2024/02/21 02:32:57;;;;;;;6.93;4.23;;;9.20;99.90;;;;;;5037496;28;20966;-68
2024/02/21 02:35:22;;;;;;;6.57;4.00;;;9.20;99.90;;;;;;5049013;28;20496;-68
2024/02/21 02:37:49;;;;;;;9.70;4.10;;;9.20;99.90;;;;;;5041576;28;20191;-68
2024/02/21 02:40:15;;;;;;;7.20;4.13;;;9.20;99.90;;;;;;5047155;28;20183;-68
2024/02/21 02:42:40;;;;;;;6.00;3.50;;;9.20;99.90;;;;;;5047264;28;20426;-67
2024/02/21 02:45:07;;;;;;;5.60;3.80;;;9.10;99.90;;;;;;5028958;28;20248;-68
2024/02/21 02:47:34;;;;;;;7.07;3.67;;;9.10;99.90;;;;;;5047953;28;20197;-70
2024/02/21 02:50:00;;;;;;;8.77;3.87;;;9.10;99.90;;;;;;5045013;28;20433;-70
2024/02/21 02:52:25;;;;;;;11.37;4.10;;;9.20;99.90;;;;;;5031504;28;20440;-68
2024/02/21 02:54:52;;;;;;;6.47;3.43;;;9.10;99.90;;;;;;5053184;28;20473;-68
2024/02/21 02:57:18;;;;;;;5.07;3.33;;;9.10;99.90;;;;;;5052301;28;20205;-69
2024/02/21 02:59:51;;;;;;;5.23;3.00;;;9.20;99.90;;;;;;5055552;28;20413;-69
2024/02/21 03:02:17;;;;;;;8.07;4.17;;;9.10;99.90;;;;;;5053138;28;20189;-67
2024/02/21 03:04:46;;;;;;;8.33;3.93;;;9.10;99.90;;;;;;5041318;28;20771;-69
2024/02/21 03:07:11;;;;;;;7.30;4.43;;;9.10;99.90;;;;;;5038370;28;20642;-68
2024/02/21 03:09:38;;;;;;;8.03;4.00;;;9.10;99.90;;;;;;5036876;28;20509;-69
2024/02/21 03:12:04;;;;;;;6.53;3.90;;;9.10;99.90;;;;;;5025041;28;20261;-68
2024/02/21 03:14:30;;;;;;;6.97;4.20;;;9.10;99.90;;;;;;5038226;28;20536;-71
2024/02/21 03:16:56;;;;;;;6.47;3.83;;;9.10;99.90;;;;;;5045092;28;20437;-69
2024/02/21 03:19:22;;;;;;;17.33;5.50;;;9.10;99.90;;;;;;5049633;28;20212;-69
2024/02/21 03:21:49;;;;;;;8.43;4.30;;;9.10;99.90;;;;;;5042030;28;20414;-68
2024/02/21 03:24:16;;;;;;;10.13;4.00;;;9.00;99.90;;;;;;5036696;28;20523;-68
2024/02/21 03:26:41;;;;;;;9.47;5.20;;;9.00;99.90;;;;;;5047734;28;20579;-68
2024/02/21 03:29:08;;;;;;;10.97;4.47;;;9.00;99.90;;;;;;5020953;28;20500;-68
2024/02/21 03:31:34;;;;;;;8.57;4.07;;;9.00;99.90;;;;;;5046943;28;20233;-67
2024/02/21 03:34:00;;;;;;;7.03;3.73;;;9.00;99.90;;;;;;5037898;28;20667;-68
2024/02/21 03:36:26;;;;;;;10.10;4.20;;;9.00;99.90;;;;;;5043023;28;20434;-70
2024/02/21 03:38:52;;;;;;;14.00;4.60;;;9.00;99.90;;;;;;5028726;28;20425;-67
2024/02/21 03:41:17;;;;;;;7.37;4.23;;;9.00;99.90;;;;;;5054971;28;20228;-67
2024/02/21 03:43:43;;;;;;;5.90;3.37;;;9.00;99.90;;;;;;5045521;28;20470;-68
2024/02/21 03:46:08;;;;;;;9.47;3.47;;;9.00;99.90;;;;;;5051815;28;20217;-68
2024/02/21 03:48:34;;;;;;;6.33;3.60;;;9.00;99.90;;;;;;5035742;28;20218;-67
2024/02/21 03:50:59;;;;;;;5.63;2.40;;;9.00;99.90;;;;;;5038600;28;20481;-68
2024/02/21 03:53:25;;;;;;;6.73;4.80;;;9.00;99.90;;;;;;5036511;28;20217;-69
2024/02/21 03:55:51;;;;;;;6.93;3.37;;;9.00;99.90;;;;;;5050111;28;20231;-68
2024/02/21 03:58:16;;;;;;;6.20;3.77;;;9.00;99.90;;;;;;5049709;28;20178;-68
2024/02/21 04:00:42;;;;;;;7.70;4.10;;;9.00;99.90;;;;;;5044630;28;20189;-69
2024/02/21 04:03:07;;;;;;;4.90;3.53;;;9.00;99.90;;;;;;5038301;28;20265;-69
2024/02/21 04:05:33;;;;;;;5.93;3.27;;;9.00;99.90;;;;;;5045527;28;20213;-69
2024/02/21 04:07:59;;;;;;;5.53;3.20;;;9.00;99.90;;;;;;5048837;28;20194;-68
2024/02/21 04:10:24;;;;;;;4.50;2.70;;;9.00;99.90;;;;;;5044669;28;20191;-70
2024/02/21 04:12:50;;;;;;;5.90;3.20;;;9.00;99.90;;;;;;5027606;28;20204;-69
2024/02/21 04:15:19;;;;;;;5.23;3.50;;;9.00;99.90;;;;;;5041864;28;20453;-69
2024/02/21 04:17:45;;;;;;;4.03;2.63;;;9.00;99.90;;;;;;5052701;28;20186;-67
2024/02/21 04:20:17;;;;;;;6.03;3.37;;;9.00;99.90;;;;;;5049495;28;20409;-68
2024/02/21 04:22:44;;;;;;;7.80;3.73;;;9.00;99.90;;;;;;5050570;28;20196;-68
2024/02/21 04:25:10;;;;;;;9.17;3.67;;;9.00;99.90;;;;;;5057997;28;20518;-68
2024/02/21 04:27:38;;;;;;;8.10;4.23;;;9.00;99.90;;;;;;5056919;28;20444;-68
2024/02/21 04:30:04;;;;;;;7.60;3.63;;;9.00;99.90;;;;;;5049949;28;20496;-68
2024/02/21 04:32:30;;;;;;;7.80;4.10;;;9.00;99.90;;;;;;5027248;28;20525;-69
2024/02/21 04:34:55;;;;;;;7.00;3.50;;;9.00;99.90;;;;;;5040683;28;20733;-68
2024/02/21 04:37:21;;;;;;;7.53;4.13;;;9.00;99.90;;;;;;5046394;28;20213;-68
2024/02/21 04:39:48;;;;;;;7.57;4.03;;;8.90;99.90;;;;;;5049414;28;20190;-68
2024/02/21 04:42:14;;;;;;;9.80;4.10;;;8.90;99.90;;;;;;5052437;28;20217;-68
2024/02/21 04:44:39;;;;;;;6.37;3.80;;;8.90;99.90;;;;;;5047976;28;20444;-68
2024/02/21 04:47:05;;;;;;;7.63;4.00;;;8.90;99.90;;;;;;5043055;28;20293;-68
2024/02/21 04:49:30;;;;;;;7.33;3.87;;;8.90;99.90;;;;;;5044781;28;20232;-68
2024/02/21 04:51:56;;;;;;;6.50;3.37;;;8.90;99.90;;;;;;5050385;28;20498;-68
2024/02/21 04:54:22;;;;;;;6.57;3.40;;;8.90;99.90;;;;;;5050712;28;20174;-68
2024/02/21 04:56:47;;;;;;;8.93;3.93;;;8.90;99.90;;;;;;5054975;28;20209;-68
2024/02/21 04:59:13;;;;;;;10.03;4.90;;;8.90;99.90;;;;;;5033534;28;20209;-68
2024/02/21 05:01:38;;;;;;;8.17;4.17;;;8.90;99.90;;;;;;5030873;28;20320;-69
2024/02/21 05:04:04;;;;;;;7.70;3.50;;;8.90;99.90;;;;;;5042450;28;20193;-69
2024/02/21 05:06:29;;;;;;;5.80;3.03;;;8.90;99.90;;;;;;5040707;28;20294;-69
2024/02/21 05:08:55;;;;;;;7.63;4.20;;;8.90;99.90;;;;;;5055952;28;20272;-69
2024/02/21 05:11:24;;;;;;;7.87;3.67;;;8.90;99.90;;;;;;5056304;28;20208;-68
2024/02/21 05:13:50;;;;;;;6.23;3.00;;;8.90;99.90;;;;;;5049002;28;20216;-69
2024/02/21 05:16:16;;;;;;;6.27;3.47;;;8.90;99.90;;;;;;5057771;28;20429;-71
2024/02/21 05:18:42;;;;;;;10.67;3.77;;;8.90;99.90;;;;;;5023636;28;20437;-72
2024/02/21 05:21:08;;;;;;;13.43;3.47;;;8.90;99.90;;;;;;5046777;28;20740;-70
2024/02/21 05:23:33;;;;;;;3.70;3.10;;;8.90;99.90;;;;;;5050591;28;20492;-70
2024/02/21 05:25:59;;;;;;;7.00;3.73;;;8.90;99.90;;;;;;5056610;28;20277;-70
2024/02/21 05:28:25;;;;;;;13.97;5.90;;;8.90;99.90;;;;;;5036090;28;20192;-72
2024/02/21 05:30:50;;;;;;;11.93;4.70;;;8.90;99.90;;;;;;5050682;28;20247;-69
2024/02/21 05:33:21;;;;;;;12.20;4.43;;;8.90;99.90;;;;;;5039731;28;20687;-69
2024/02/21 05:35:50;;;;;;;12.67;4.97;;;8.90;99.90;;;;;;5027462;28;20202;-70
2024/02/21 05:38:16;;;;;;;9.10;4.97;;;9.00;99.90;;;;;;5052806;28;20463;-70
2024/02/21 05:40:41;;;;;;;10.97;4.77;;;9.00;99.90;;;;;;5049276;28;20425;-71
2024/02/21 05:43:08;;;;;;;8.37;3.90;;;9.00;99.90;;;;;;5033956;28;20409;-71
2024/02/21 05:45:34;;;;;;;10.10;4.50;;;9.00;99.90;;;;;;5058300;28;20672;-72
2024/02/21 05:47:59;;;;;;;8.90;4.97;;;9.00;99.90;;;;;;5038759;28;20448;-70
2024/02/21 05:50:26;;;;;;;8.80;4.57;;;9.00;99.90;;;;;;5042167;28;20479;-69
2024/02/21 05:52:53;;;;;;;9.20;3.60;;;9.00;99.90;;;;;;5051838;28;20607;-70
2024/02/21 05:55:18;;;;;;;7.73;4.40;;;9.00;99.90;;;;;;5055421;28;20726;-70
2024/02/21 05:57:44;;;;;;;8.70;4.23;;;9.00;99.90;;;;;;5018310;28;20515;-70
2024/02/21 06:00:10;;;;;;;6.10;4.00;;;9.00;99.90;;;;;;5043130;28;20214;-72
2024/02/21 06:02:39;;;;;;;6.97;4.20;;;9.00;99.90;;;;;;5049268;28;20192;-71
2024/02/21 06:05:07;;;;;;;5.37;3.03;;;9.00;99.90;;;;;;5029277;28;20436;-68
2024/02/21 06:07:33;;;;;;;8.00;3.40;;;9.00;99.90;;;;;;5042302;28;20452;-70
2024/02/21 06:09:59;;;;;;;6.43;3.20;;;8.90;99.90;;;;;;5048226;28;20417;-69
2024/02/21 06:12:25;;;;;;;6.40;3.83;;;8.90;99.90;;;;;;5054985;28;20551;-70
2024/02/21 06:14:51;;;;;;;8.73;3.80;;;8.90;99.90;;;;;;5041037;28;20462;-68
2024/02/21 06:17:16;;;;;;;5.83;3.57;;;8.90;99.90;;;;;;5055683;28;20258;-71
2024/02/21 06:19:43;;;;;;;8.40;4.30;;;8.90;99.90;;;;;;5053687;28;20582;-69
2024/02/21 06:22:09;;;;;;;10.53;4.60;;;8.90;99.90;;;;;;5050319;28;20194;-72
2024/02/21 06:24:36;;;;;;;9.90;3.60;;;8.90;99.90;;;;;;5048119;28;20438;-69
2024/02/21 06:27:02;;;;;;;7.30;4.27;;;8.90;99.90;;;;;;5058122;28;20213;-73
2024/02/21 06:29:27;;;;;;;8.83;4.20;;;8.90;99.90;;;;;;5048312;28;20878;-71
2024/02/21 06:31:53;;;;;;;8.27;4.77;;;8.90;99.90;;;;;;5050556;28;20460;-74
2024/02/21 06:34:19;;;;;;;7.63;4.30;;;8.90;99.90;;;;;;5022120;28;20205;-71
2024/02/21 06:36:45;;;;;;;9.47;4.10;;;8.90;99.90;;;;;;5017163;28;20217;-74
2024/02/21 06:39:11;;;;;;;7.33;4.07;;;8.90;99.90;;;;;;5059015;28;20234;-73
2024/02/21 06:41:37;;;;;;;6.83;3.70;;;8.90;99.90;;;;;;5061646;28;20694;-71
2024/02/21 06:44:03;;;;;;;5.20;3.17;;;8.90;99.90;;;;;;5065662;28;20425;-72
2024/02/21 06:46:29;;;;;;;8.87;4.33;;;8.90;99.90;;;;;;5060143;28;20444;-71
2024/02/21 06:48:59;;;;;;;7.93;4.70;;;8.90;99.90;;;;;;5036344;28;20429;-74
2024/02/21 06:51:26;;;;;;;9.43;4.30;;;8.90;99.90;;;;;;5061103;28;20479;-74
2024/02/21 06:53:51;;;;;;;9.90;4.97;;;8.90;99.90;;;;;;5058269;28;20515;-74
2024/02/21 06:56:17;;;;;;;10.10;4.57;;;8.90;99.90;;;;;;5050297;28;20451;-72
2024/02/21 06:58:42;;;;;;;5.90;3.50;;;8.90;99.90;;;;;;5067556;28;20220;-70
2024/02/21 07:01:08;;;;;;;6.33;3.23;;;9.00;99.90;;;;;;5051744;28;20257;-70
2024/02/21 07:03:34;;;;;;;9.90;3.80;;;9.00;99.90;;;;;;5051715;28;20191;-71
2024/02/21 07:06:00;;;;;;;3.87;2.77;;;9.00;99.90;;;;;;5057777;28;20454;-72
2024/02/21 07:08:26;;;;;;;6.67;3.50;;;9.00;99.90;;;;;;5057907;28;20189;-73
2024/02/21 07:10:51;;;;;;;4.27;3.20;;;9.00;99.90;;;;;;5049973;28;20204;-71
2024/02/21 07:13:17;;;;;;;6.17;3.17;;;9.10;99.90;;;;;;5022553;28;20449;-71
2024/02/21 07:15:43;;;;;;;6.27;3.60;;;9.10;99.90;;;;;;5041635;28;20213;-73
2024/02/21 07:18:08;;;;;;;4.10;3.70;;;9.10;99.90;;;;;;5053046;28;20197;-71
2024/02/21 07:20:36;;;;;;;5.70;3.20;;;9.10;99.90;;;;;;5057424;28;20181;-72
2024/02/21 07:23:03;;;;;;;5.00;3.00;;;9.10;99.90;;;;;;5041161;28;20186;-73
2024/02/21 07:25:28;;;;;;;7.80;3.53;;;9.10;99.90;;;;;;5054801;28;20432;-71
2024/02/21 07:27:54;;;;;;;8.80;4.30;;;9.20;99.90;;;;;;5053336;28;20650;-73
2024/02/21 07:30:19;;;;;;;8.47;3.73;;;9.10;99.90;;;;;;5053120;28;20174;-72
2024/02/21 07:32:45;;;;;;;8.20;4.60;;;9.10;99.90;;;;;;5050836;28;20219;-73
2024/02/21 07:35:11;;;;;;;6.33;3.17;;;9.20;99.90;;;;;;5049600;28;20216;-71
2024/02/21 07:37:38;;;;;;;6.67;3.40;;;9.20;99.90;;;;;;5042599;28;20276;-74
2024/02/21 07:40:11;;;;;;;9.52;4.15;;;9.20;99.90;;;;;;5049564;28;20743;-73
2024/02/21 07:42:37;;;;;;;6.57;3.47;;;9.30;99.90;;;;;;5044195;28;20182;-71
2024/02/21 07:45:03;;;;;;;6.30;3.17;;;9.30;99.90;;;;;;5043191;28;20903;-73
2024/02/21 07:47:29;;;;;;;5.40;3.07;;;9.30;99.90;;;;;;5053231;28;20644;-72
2024/02/21 07:49:54;;;;;;;5.67;3.40;;;9.30;99.90;;;;;;5055122;28;20433;-72
2024/02/21 07:52:20;;;;;;;6.37;3.57;;;9.30;99.90;;;;;;5036695;28;20210;-73
2024/02/21 07:54:45;;;;;;;8.07;4.27;;;9.30;99.90;;;;;;5049913;28;20226;-72
2024/02/21 07:57:11;;;;;;;7.67;3.70;;;9.30;99.90;;;;;;5054128;28;20239;-71
2024/02/21 07:59:37;;;;;;;5.57;3.10;;;9.30;99.90;;;;;;5031687;28;20219;-73
2024/02/21 08:02:06;;;;;;;6.10;2.83;;;9.30;99.90;;;;;;5057818;28;20182;-73
2024/02/21 08:04:32;;;;;;;5.67;3.13;;;9.30;99.90;;;;;;5036719;28;20585;-75
2024/02/21 08:07:01;;;;;;;6.80;3.50;;;9.40;99.90;;;;;;5057617;28;20563;-72
2024/02/21 08:09:27;;;;;;;4.40;2.70;;;9.40;99.90;;;;;;5040334;28;20412;-73
2024/02/21 08:11:54;;;;;;;7.20;3.00;;;9.40;99.90;;;;;;5051790;28;20751;-72
2024/02/21 08:14:20;;;;;;;9.53;3.77;;;9.40;99.90;;;;;;5031716;28;20841;-75
2024/02/21 08:16:46;;;;;;;6.37;3.70;;;9.50;99.90;;;;;;5031587;28;20464;-71
2024/02/21 08:19:11;;;;;;;7.37;4.43;;;9.50;99.90;;;;;;5054081;28;20201;-70
2024/02/21 08:21:37;;;;;;;9.03;4.07;;;9.50;99.90;;;;;;5036916;28;20209;-71
2024/02/21 08:24:03;;;;;;;9.00;4.50;;;9.50;99.90;;;;;;5047612;28;20190;-73
2024/02/21 08:26:30;;;;;;;6.03;3.80;;;9.50;99.90;;;;;;5048897;28;20261;-70
2024/02/21 08:28:59;;;;;;;10.70;4.23;;;9.50;99.90;;;;;;5055415;28;20539;-72
2024/02/21 08:31:30;;;;;;;9.00;3.80;;;9.60;99.90;;;;;;5047992;28;20744;-73
2024/02/21 08:34:02;;;;;;;8.37;4.00;;;9.60;99.90;;;;;;5033186;28;20707;-75
2024/02/21 08:36:32;;;;;;;8.13;3.77;;;9.60;99.90;;;;;;5053476;28;20456;-72
2024/02/21 08:38:58;;;;;;;8.10;4.03;;;9.70;99.90;;;;;;5045203;28;20418;-72
2024/02/21 08:41:24;;;;;;;9.20;3.90;;;9.80;99.90;;;;;;5026793;28;20467;-71
2024/02/21 08:43:53;;;;;;;6.87;3.63;;;9.90;99.90;;;;;;5048754;28;20496;-72
2024/02/21 08:46:24;;;;;;;9.00;3.83;;;10.00;99.90;;;;;;5057074;28;20460;-74
2024/02/21 08:48:51;;;;;;;8.17;3.60;;;10.20;99.90;;;;;;5046526;28;20828;-73
2024/02/21 08:51:17;;;;;;;10.20;4.73;;;10.30;99.90;;;;;;5056908;28;20492;-71
2024/02/21 08:53:44;;;;;;;6.07;3.40;;;10.40;99.90;;;;;;5043296;28;20418;-72
2024/02/21 08:56:09;;;;;;;9.33;4.47;;;10.50;99.90;;;;;;5043663;28;20503;-72
2024/02/21 08:58:36;;;;;;;7.03;3.50;;;10.60;99.90;;;;;;5030406;28;20414;-73
2024/02/21 09:01:04;;;;;;;12.30;4.80;;;10.60;99.90;;;;;;5053471;28;20532;-72
2024/02/21 09:03:33;;;;;;;9.90;3.70;;;10.60;99.90;;;;;;5022263;28;20419;-70
2024/02/21 09:05:59;;;;;;;11.23;4.03;;;10.60;99.90;;;;;;5034533;28;20483;-71
2024/02/21 09:08:26;;;;;;;10.53;4.53;;;10.80;99.90;;;;;;5028561;28;20429;-70
2024/02/21 09:10:51;;;;;;;7.67;3.93;;;10.90;99.90;;;;;;5031862;28;20436;-72
2024/02/21 09:13:17;;;;;;;10.00;3.23;;;11.10;99.90;;;;;;5041861;28;20473;-74
2024/02/21 09:15:43;;;;;;;10.83;4.67;;;11.30;99.90;;;;;;5050160;28;20237;-70
2024/02/21 09:18:09;;;;;;;11.57;4.70;;;11.50;99.90;;;;;;5051417;28;20192;-72
2024/02/21 09:20:35;;;;;;;11.77;6.07;;;11.50;99.90;;;;;;5041848;28;20745;-72
2024/02/21 09:23:01;;;;;;;8.23;3.97;;;11.60;99.90;;;;;;5033384;28;20464;-71
2024/02/21 09:25:26;;;;;;;9.87;3.63;;;11.60;99.50;;;;;;5052666;28;20420;-72
2024/02/21 09:27:54;;;;;;;9.93;3.47;;;11.60;98.60;;;;;;5050695;28;20208;-71
2024/02/21 09:30:20;;;;;;;8.67;4.00;;;11.50;96.90;;;;;;5048367;28;20208;-71
2024/02/21 09:32:46;;;;;;;8.50;4.00;;;11.50;97.70;;;;;;5063388;28;20475;-73
2024/02/21 09:35:12;;;;;;;5.70;3.43;;;11.60;97.40;;;;;;5050640;28;20358;-71
2024/02/21 09:37:38;;;;;;;7.77;4.40;;;11.70;96.30;;;;;;5064720;28;20210;-72
2024/02/21 09:40:05;;;;;;;9.70;3.37;;;11.70;95.90;;;;;;5051499;28;20452;-73
2024/02/21 09:42:38;;;;;;;5.37;3.10;;;11.80;95.80;;;;;;5046496;28;20498;-73
2024/02/21 09:45:25;;;;;;;8.60;3.37;;;11.90;95.00;;;;;;5026485;28;20592;-71
2024/02/21 09:48:14;;;;;;;5.00;3.20;;;11.90;94.70;;;;;;4994042;28;20441;-72
2024/02/21 09:50:40;;;;;;;8.23;3.73;;;11.90;93.40;;;;;;5056343;28;20417;-72
2024/02/21 09:53:07;;;;;;;6.40;3.00;;;11.90;92.80;;;;;;5046371;28;20450;-73
2024/02/21 09:55:40;;;;;;;8.20;3.50;;;11.90;93.00;;;;;;5054611;28;20413;-72
2024/02/21 09:58:05;;;;;;;8.80;3.60;;;11.90;92.20;;;;;;5055973;28;20418;-73
2024/02/21 10:00:31;;;;;;;9.50;4.37;;;11.90;91.80;;;;;;5056362;28;20402;-72
2024/02/21 10:02:58;;;;;;;4.20;2.83;;;11.90;90.70;;;;;;5036572;28;20251;-73
2024/02/21 10:05:24;;;;;;;8.27;4.10;;;11.90;90.70;;;;;;5057828;28;20217;-72
2024/02/21 10:07:51;;;;;;;8.10;3.93;;;12.00;89.60;;;;;;5040125;28;20419;-74
2024/02/21 10:10:21;;;;;;;6.60;3.50;;;11.90;88.20;;;;;;5055314;28;20432;-71
2024/02/21 10:12:56;;;;;;;9.40;3.20;;;12.00;89.20;;;;;;5051431;28;20452;-71
2024/02/21 10:15:23;;;;;;;4.73;3.13;;;12.10;87.60;;;;;;5053701;28;20482;-73
2024/02/21 10:17:49;;;;;;;12.93;4.60;;;12.10;86.80;;;;;;5048765;28;20429;-73
2024/02/21 10:20:16;;;;;;;6.63;3.13;;;12.20;85.40;;;;;;5055568;28;20431;-71
2024/02/21 10:22:42;;;;;;;8.37;3.60;;;12.20;85.60;;;;;;5058998;28;20420;-72
2024/02/21 10:25:12;;;;;;;7.27;2.77;;;12.20;85.90;;;;;;5046362;28;20484;-73
2024/02/21 10:27:39;;;;;;;8.13;3.60;;;12.30;85.90;;;;;;5049696;28;20445;-73
2024/02/21 10:30:08;;;;;;;4.10;3.00;;;12.40;85.90;;;;;;5056231;28;20424;-73
2024/02/21 10:32:35;;;;;;;7.20;2.53;;;12.40;85.60;;;;;;5049125;28;20491;-76
2024/02/21 10:35:05;;;;;;;5.80;2.73;;;12.60;85.40;;;;;;5040721;28;20415;-72
2024/02/21 10:37:32;;;;;;;5.87;3.07;;;12.70;85.20;;;;;;5020938;28;20453;-72
2024/02/21 10:39:57;;;;;;;7.00;3.37;;;12.80;83.80;;;;;;5012529;28;20420;-71
2024/02/21 10:42:29;;;;;;;11.40;3.33;;;12.90;83.20;;;;;;5057322;28;20693;-72
2024/02/21 10:45:01;;;;;;;7.10;3.53;;;13.00;82.20;;;;;;5051024;28;20264;-71
2024/02/21 10:47:30;;;;;;;6.17;3.20;;;12.90;80.10;;;;;;5051799;28;20453;-72
2024/02/21 10:50:04;;;;;;;6.87;3.40;;;13.00;80.40;;;;;;5038235;28;20455;-74
2024/02/21 10:52:49;;;;;;;5.13;2.73;;;13.00;79.80;;;;;;5029784;28;20742;-72
2024/02/21 10:55:39;;;;;;;10.43;3.60;;;12.90;79.50;;;;;;4996579;28;20413;-74
2024/02/21 10:58:05;;;;;;;7.00;3.70;;;13.00;78.60;;;;;;5026102;28;20425;-72
2024/02/21 11:00:31;;;;;;;8.00;3.40;;;13.00;78.30;;;;;;5052200;28;20417;-72
2024/02/21 11:03:00;;;;;;;9.43;3.63;;;13.00;78.80;;;;;;5026417;28;20456;-73
2024/02/21 11:05:28;;;;;;;5.70;3.10;;;13.00;77.50;;;;;;5043647;28;20421;-72
2024/02/21 11:07:53;;;;;;;5.13;2.57;;;13.10;77.20;;;;;;5053886;28;20420;-72
2024/02/21 11:10:26;;;;;;;6.63;3.00;;;13.20;77.20;;;;;;5030309;28;20433;-71
2024/02/21 11:13:08;;;;;;;6.93;2.60;;;13.20;76.30;;;;;;5049697;28;20233;-74
2024/02/21 11:15:34;;;;;;;7.27;3.20;;;13.30;74.90;;;;;;5031594;28;20444;-73
2024/02/21 11:18:00;;;;;;;8.37;2.80;;;13.30;74.40;;;;;;5036796;28;20421;-73
2024/02/21 11:20:34;;;;;;;9.83;2.87;;;13.30;74.70;;;;;;5049833;28;20203;-72
2024/02/21 11:22:59;;;;;;;5.10;3.20;;;13.30;74.30;;;;;;5033597;28;20206;-73
2024/02/21 11:25:25;;;;;;;5.37;2.60;;;13.40;74.40;;;;;;5022313;28;20419;-74
2024/02/21 11:27:59;;;;;;;4.70;2.10;;;13.40;73.90;;;;;;5051661;28;20186;-72
2024/02/21 11:30:32;;;;;;;11.13;3.70;;;13.50;74.30;;;;;;5047328;28;20373;-76
2024/02/21 11:33:06;;;;;;;10.30;3.47;;;13.50;72.90;;;;;;5019531;28;20445;-74
2024/02/21 11:35:33;;;;;;;5.30;2.60;;;13.60;71.30;;;;;;5020782;28;20405;-73
2024/02/21 11:38:16;;;;;;;5.40;2.97;;;13.60;71.90;;;;;;5034544;28;20425;-72
2024/02/21 11:40:45;;;;;;;7.20;3.07;;;13.60;71.80;;;;;;5055001;28;20420;-71
2024/02/21 11:43:11;;;;;;;6.37;2.67;;;13.60;72.00;;;;;;5053699;28;20706;-72
2024/02/21 11:45:37;;;;;;;8.90;2.73;;;13.50;71.00;;;;;;5027667;28;20472;-73
2024/02/21 11:48:06;;;;;;;5.87;2.77;;;13.50;71.40;;;;;;5035756;28;20221;-74
2024/02/21 11:50:31;;;;;;;5.50;2.50;;;13.40;71.00;;;;;;5051085;28;20672;-74
2024/02/21 11:52:58;;;;;;;5.70;2.43;;;13.40;71.50;;;;;;5042909;28;20437;-74
2024/02/21 11:55:23;;;;;;;9.73;3.90;;;13.50;71.00;;;;;;5049666;28;20197;-72
2024/02/21 11:57:49;;;;;;;9.37;3.23;;;13.50;71.00;;;;;;5048130;28;20439;-75
2024/02/21 12:00:18;;;;;;;7.43;3.50;;;13.60;71.00;;;;;;5042838;28;20205;-70
2024/02/21 12:02:45;;;;;;;8.53;3.10;;;13.60;69.80;;;;;;5022576;28;20425;-72
2024/02/21 12:05:11;;;;;;;10.63;3.13;;;13.50;69.10;;;;;;5026028;28;21998;-72
2024/02/21 12:07:40;;;;;;;6.97;2.90;;;13.50;69.60;;;;;;5025435;28;20486;-74
2024/02/21 12:10:15;;;;;;;7.33;3.20;;;13.50;69.50;;;;;;5027230;28;20185;-72
2024/02/21 12:12:41;;;;;;;6.53;2.87;;;13.60;69.90;;;;;;5046191;28;20528;-74
2024/02/21 12:15:07;;;;;;;9.40;4.20;;;13.70;70.00;;;;;;5037007;28;20780;-75
2024/02/21 12:17:37;;;;;;;7.63;2.77;;;13.70;68.70;;;;;;5039047;28;20484;-73
2024/02/21 12:20:05;;;;;;;6.20;2.73;;;13.70;68.80;;;;;;5060295;28;20421;-73
2024/02/21 12:22:34;;;;;;;7.43;3.63;;;13.70;68.50;;;;;;5050512;28;20733;-74
2024/02/21 12:25:04;;;;;;;7.57;3.75;;;13.60;68.50;;;;;;5040708;28;20438;-75
2024/02/21 12:27:29;;;;;;;4.93;3.13;;;13.60;67.70;;;;;;5030016;28;20551;-75
2024/02/21 12:29:55;;;;;;;4.97;2.53;;;13.60;67.60;;;;;;5049967;28;20429;-73
2024/02/21 12:32:21;;;;;;;9.60;3.37;;;13.60;67.50;;;;;;5043169;28;20476;-76
2024/02/21 12:34:47;;;;;;;6.30;2.40;;;13.50;67.80;;;;;;5024139;28;20200;-75
2024/02/21 12:37:13;;;;;;;6.63;2.73;;;13.40;68.50;;;;;;5009379;28;20305;-73
2024/02/21 12:39:38;;;;;;;5.23;2.57;;;13.50;68.50;;;;;;5036788;28;20178;-74
2024/02/21 12:42:04;;;;;;;5.43;2.53;;;13.50;68.70;;;;;;5030865;28;20428;-75
2024/02/21 12:44:30;;;;;;;8.93;3.30;;;13.50;68.30;;;;;;5032790;28;20194;-75
2024/02/21 12:46:55;;;;;;;7.73;3.33;;;13.50;68.70;;;;;;5045932;28;20921;-74
2024/02/21 12:49:21;;;;;;;10.50;3.47;;;13.50;68.50;;;;;;5029251;28;20198;-72
2024/02/21 12:51:47;;;;;;;4.87;2.77;;;13.50;69.10;;;;;;5036880;28;20203;-75